createdAt,value
2023-08-20T00:01:27.303Z,40.00
2023-08-20T00:04:32.793Z,39.00
2023-08-20T00:07:35.779Z,44.50
2023-08-20T00:10:38.768Z,37.25
2023-08-20T00:13:41.806Z,41.00
2023-08-20T00:16:45.599Z,41.75
2023-08-20T00:19:49.027Z,41.25
2023-08-20T00:22:52.335Z,43.25
2023-08-20T00:25:55.061Z,38.00
2023-08-20T00:28:57.918Z,39.75
2023-08-20T00:32:00.325Z,42.50
2023-08-20T00:35:04.261Z,41.50
2023-08-20T00:38:07.135Z,32.75
2023-08-20T00:41:09.924Z,34.00
2023-08-20T00:44:13.390Z,35.75
2023-08-20T00:47:17.906Z,39.25
2023-08-20T00:50:21.042Z,35.75
2023-08-20T00:53:23.970Z,42.00
2023-08-20T00:56:26.632Z,40.00
2023-08-20T00:59:31.576Z,40.00
2023-08-20T01:02:35.720Z,37.50
2023-08-20T01:05:48.512Z,39.00
2023-08-20T01:08:59.573Z,42.00
2023-08-20T01:12:04.800Z,40.25
2023-08-20T01:15:09.827Z,41.50
2023-08-20T01:18:12.957Z,39.75
2023-08-20T01:21:41.405Z,41.25
2023-08-20T01:25:09.384Z,37.25
2023-08-20T01:28:22.968Z,39.25
2023-08-20T01:31:28.009Z,43.25
2023-08-20T01:34:30.523Z,37.75
2023-08-20T01:37:33.702Z,32.25
2023-08-20T01:40:36.317Z,35.00
2023-08-20T01:43:39.143Z,33.00
2023-08-20T01:46:41.692Z,40.50
2023-08-20T01:49:44.532Z,32.25
2023-08-20T01:52:47.131Z,40.00
2023-08-20T01:55:49.887Z,37.50
2023-08-20T01:58:52.281Z,39.25
2023-08-20T02:01:55.123Z,33.00
2023-08-20T02:04:57.733Z,39.00
2023-08-20T02:08:00.533Z,34.25
2023-08-20T02:11:04.287Z,38.50
2023-08-20T02:14:07.030Z,36.25
2023-08-20T02:17:09.716Z,38.50
2023-08-20T02:20:12.647Z,36.50
2023-08-20T02:23:15.185Z,38.50
2023-08-20T02:26:18.021Z,37.00
2023-08-20T02:29:20.447Z,36.50
2023-08-20T02:32:23.335Z,40.25
2023-08-20T02:35:26.672Z,41.00
2023-08-20T02:38:29.434Z,39.75
2023-08-20T02:41:31.895Z,36.25
2023-08-20T02:44:34.651Z,35.50
2023-08-20T02:47:37.465Z,33.75
2023-08-20T02:50:40.647Z,38.25
2023-08-20T02:53:43.082Z,35.25
2023-08-20T02:56:46.807Z,41.00
2023-08-20T02:59:49.275Z,43.25
2023-08-20T03:02:52.302Z,33.75
2023-08-20T03:05:55.010Z,36.75
2023-08-20T03:08:57.907Z,40.00
2023-08-20T03:12:00.390Z,38.75
2023-08-20T03:15:04.239Z,37.25
2023-08-20T03:18:07.377Z,39.25
2023-08-20T03:21:10.122Z,38.25
2023-08-20T03:24:12.557Z,40.50
2023-08-20T03:27:15.337Z,40.50
2023-08-20T03:30:17.754Z,33.50
2023-08-20T03:33:21.478Z,35.00
2023-08-20T03:36:23.994Z,37.00
2023-08-20T03:39:26.869Z,41.75
2023-08-20T03:42:29.355Z,41.75
2023-08-20T03:45:32.489Z,40.75
2023-08-20T03:48:35.023Z,40.25
2023-08-20T03:51:37.941Z,31.00
2023-08-20T03:54:40.385Z,36.00
2023-08-20T03:57:43.159Z,38.50
2023-08-20T04:00:45.980Z,39.25
2023-08-20T04:03:49.651Z,38.75
2023-08-20T04:06:52.419Z,41.00
2023-08-20T04:09:55.207Z,42.50
2023-08-20T04:12:57.626Z,41.50
2023-08-20T04:16:00.791Z,42.75
2023-08-20T04:19:03.313Z,40.75
2023-08-20T04:22:06.203Z,44.75
2023-08-20T04:25:09.028Z,39.25
2023-08-20T04:28:12.214Z,40.50
2023-08-20T04:31:14.831Z,41.25
2023-08-20T04:34:30.971Z,40.00
2023-08-20T04:37:33.680Z,40.75
2023-08-20T04:40:36.711Z,44.00
2023-08-20T04:43:39.216Z,38.00
2023-08-20T04:46:42.199Z,38.25
2023-08-20T04:49:45.646Z,41.25
2023-08-20T04:52:50.000Z,38.75
2023-08-20T04:55:52.850Z,38.50
2023-08-20T04:58:55.814Z,39.00
2023-08-20T05:02:33.274Z,37.00
2023-08-20T05:05:38.877Z,39.00
2023-08-20T05:08:41.569Z,37.50
2023-08-20T05:11:44.890Z,38.25
2023-08-20T05:14:47.434Z,35.75
2023-08-20T05:17:50.464Z,41.50
2023-08-20T05:20:53.180Z,37.00
2023-08-20T05:23:56.051Z,40.75
2023-08-20T05:27:15.877Z,39.25
2023-08-20T05:30:21.020Z,40.00
2023-08-20T05:33:24.478Z,41.00
2023-08-20T05:36:27.381Z,37.00
2023-08-20T05:39:31.861Z,43.00
2023-08-20T05:42:34.894Z,42.50
2023-08-20T05:45:41.734Z,44.25
2023-08-20T05:48:46.790Z,39.00
2023-08-20T05:51:49.581Z,40.75
2023-08-20T05:54:54.255Z,39.00
2023-08-20T05:57:58.478Z,38.50
2023-08-20T06:01:01.272Z,42.00
2023-08-20T06:04:05.701Z,49.50
2023-08-20T06:07:08.512Z,50.00
2023-08-20T06:10:11.337Z,48.00
2023-08-20T06:13:14.238Z,50.25
2023-08-20T06:16:16.958Z,52.00
2023-08-20T06:19:19.780Z,52.75
2023-08-20T06:22:22.273Z,49.75
2023-08-20T06:25:25.152Z,49.50
2023-08-20T06:28:27.614Z,50.00
2023-08-20T06:31:30.581Z,48.25
2023-08-20T06:34:35.453Z,50.00
2023-08-20T06:37:40.155Z,44.33
2023-08-20T06:40:42.666Z,46.67
2023-08-20T06:43:45.557Z,46.67
2023-08-20T06:46:48.179Z,48.75
2023-08-20T06:49:54.009Z,46.33
2023-08-20T06:52:56.441Z,44.67
2023-08-20T06:55:59.205Z,44.33
2023-08-20T06:59:04.119Z,42.33
2023-08-20T07:02:07.179Z,43.00
2023-08-20T07:05:10.843Z,42.00
2023-08-20T07:08:13.829Z,41.67
2023-08-20T07:11:16.330Z,40.00
2023-08-20T07:14:19.138Z,37.67
2023-08-20T07:17:21.569Z,36.67
2023-08-20T07:20:24.502Z,34.00
2023-08-20T07:23:27.156Z,36.33
2023-08-20T07:26:31.029Z,36.00
2023-08-20T07:29:33.608Z,38.33
2023-08-20T07:32:36.394Z,35.33
2023-08-20T07:35:38.923Z,37.67
2023-08-20T07:38:45.562Z,35.67
2023-08-20T07:41:48.040Z,36.33
2023-08-20T07:44:50.930Z,34.00
2023-08-20T07:47:53.347Z,32.33
2023-08-20T07:50:56.306Z,33.67
2023-08-20T07:53:59.947Z,34.00
2023-08-20T07:57:02.702Z,34.33
2023-08-20T08:00:06.062Z,32.33
2023-08-20T08:03:16.207Z,37.67
2023-08-20T08:06:19.565Z,30.00
2023-08-20T08:09:28.252Z,31.00
2023-08-20T08:12:30.871Z,35.00
2023-08-20T08:15:33.921Z,32.33
2023-08-20T08:18:36.579Z,28.00
2023-08-20T08:21:39.834Z,30.50
2023-08-20T08:24:43.865Z,30.75
2023-08-20T08:27:59.441Z,31.00
2023-08-20T08:31:07.838Z,27.25
2023-08-20T08:34:11.171Z,29.75
2023-08-20T08:37:13.769Z,28.25
2023-08-20T08:40:16.744Z,33.00
2023-08-20T08:43:19.852Z,28.25
2023-08-20T08:46:23.734Z,26.50
2023-08-20T08:49:27.339Z,31.75
2023-08-20T08:52:31.467Z,29.75
2023-08-20T08:55:34.053Z,36.00
2023-08-20T08:58:36.935Z,36.33
2023-08-20T09:01:41.283Z,34.75
2023-08-20T09:04:44.597Z,37.75
2023-08-20T09:07:47.178Z,31.50
2023-08-20T09:10:54.509Z,35.25
2023-08-20T09:13:57.025Z,35.50
2023-08-20T09:17:03.413Z,32.50
2023-08-20T09:20:06.323Z,32.25
2023-08-20T09:23:14.458Z,31.00
2023-08-20T09:26:17.075Z,32.00
2023-08-20T09:29:20.017Z,33.00
2023-08-20T09:32:24.030Z,33.50
2023-08-20T09:35:26.867Z,32.75
2023-08-20T09:38:29.343Z,34.25
2023-08-20T09:41:33.175Z,30.00
2023-08-20T09:44:37.259Z,32.00
2023-08-20T09:47:41.692Z,32.00
2023-08-20T09:50:45.623Z,30.75
2023-08-20T09:54:03.960Z,34.75
2023-08-20T09:57:09.224Z,28.00
2023-08-20T10:00:13.773Z,27.75
2023-08-20T10:03:16.305Z,33.25
2023-08-20T10:06:20.071Z,30.25
2023-08-20T10:09:23.736Z,24.20
2023-08-20T10:12:26.644Z,25.00
2023-08-20T10:15:29.925Z,26.40
2023-08-20T10:18:36.059Z,26.50
2023-08-20T10:21:46.232Z,28.20
2023-08-20T10:24:52.247Z,31.00
2023-08-20T10:27:56.466Z,30.25
2023-08-20T10:31:13.667Z,28.20
2023-08-20T10:34:34.059Z,30.50
2023-08-20T10:37:38.702Z,27.75
2023-08-20T10:40:57.976Z,28.50
2023-08-20T10:44:01.696Z,29.25
2023-08-20T10:47:08.382Z,29.00
2023-08-20T10:50:21.120Z,28.60
2023-08-20T10:53:25.109Z,29.00
2023-08-20T10:56:43.887Z,34.75
2023-08-20T10:59:58.760Z,30.80
2023-08-20T11:03:02.217Z,30.80
2023-08-20T11:06:05.128Z,29.25
2023-08-20T11:09:08.224Z,32.25
2023-08-20T11:12:10.806Z,32.00
2023-08-20T11:15:14.148Z,28.75
2023-08-20T11:18:16.991Z,26.50
2023-08-20T11:21:20.924Z,30.75
2023-08-20T11:24:23.465Z,25.25
2023-08-20T11:27:28.683Z,28.25
2023-08-20T11:30:31.782Z,27.75
2023-08-20T11:33:36.745Z,23.75
2023-08-20T11:36:43.502Z,29.50
2023-08-20T11:39:46.414Z,30.75
2023-08-20T11:42:50.261Z,28.25
2023-08-20T11:45:53.262Z,28.75
2023-08-20T11:49:12.482Z,29.60
2023-08-20T11:52:15.539Z,29.25
2023-08-20T11:55:24.510Z,27.50
2023-08-20T11:58:29.995Z,29.00
2023-08-20T12:01:35.524Z,29.25
2023-08-20T12:04:38.242Z,30.75
2023-08-20T12:07:40.746Z,25.75
2023-08-20T12:10:45.853Z,28.75
2023-08-20T12:13:49.523Z,31.00
2023-08-20T12:16:52.707Z,27.25
2023-08-20T12:19:55.318Z,27.00
2023-08-20T12:23:07.754Z,26.80
2023-08-20T12:26:10.276Z,29.20
2023-08-20T12:29:13.083Z,29.00
2023-08-20T12:32:16.178Z,29.25
2023-08-20T12:35:19.106Z,28.75
2023-08-20T12:38:22.339Z,28.50
2023-08-20T12:41:25.217Z,28.25
2023-08-20T12:44:27.650Z,26.75
2023-08-20T12:47:30.695Z,29.00
2023-08-20T12:50:33.278Z,29.25
2023-08-20T12:53:37.583Z,29.25
2023-08-20T12:56:41.775Z,28.00
2023-08-20T12:59:44.938Z,28.00
2023-08-20T13:02:47.806Z,25.00
2023-08-20T13:05:51.409Z,29.25
2023-08-20T13:08:54.607Z,27.75
2023-08-20T13:11:58.827Z,25.75
2023-08-20T13:15:01.850Z,28.75
2023-08-20T13:18:05.684Z,27.50
2023-08-20T13:21:09.797Z,30.75
2023-08-20T13:24:12.728Z,29.00
2023-08-20T13:27:15.400Z,30.00
2023-08-20T13:30:19.313Z,29.50
2023-08-20T13:33:22.139Z,29.00
2023-08-20T13:36:25.194Z,28.75
2023-08-20T13:39:27.720Z,28.25
2023-08-20T13:42:30.719Z,26.50
2023-08-20T13:45:33.630Z,28.75
2023-08-20T13:48:37.339Z,28.00
2023-08-20T13:51:40.054Z,29.50
2023-08-20T13:54:42.947Z,28.50
2023-08-20T13:57:45.693Z,35.00
2023-08-20T14:00:49.030Z,33.00
2023-08-20T14:03:52.254Z,34.75
2023-08-20T14:06:55.500Z,28.25
2023-08-20T14:09:58.701Z,24.75
2023-08-20T14:13:01.760Z,33.00
2023-08-20T14:16:04.959Z,36.50
2023-08-20T14:19:11.012Z,35.50
2023-08-20T14:22:14.230Z,35.00
2023-08-20T14:25:17.415Z,32.50
2023-08-20T14:28:19.933Z,34.25
2023-08-20T14:31:23.150Z,35.67
2023-08-20T14:34:29.242Z,37.33
2023-08-20T14:37:32.247Z,39.33
2023-08-20T14:40:39.723Z,43.00
2023-08-20T14:43:43.498Z,37.33
2023-08-20T14:46:46.121Z,38.33
2023-08-20T14:49:49.770Z,35.67
2023-08-20T14:52:55.506Z,36.33
2023-08-20T14:55:58.954Z,38.33
2023-08-20T14:59:01.781Z,38.33
2023-08-20T15:02:05.292Z,37.00
2023-08-20T15:05:08.575Z,29.67
2023-08-20T15:08:11.642Z,33.67
2023-08-20T15:11:14.357Z,33.33
2023-08-20T15:14:17.313Z,31.00
2023-08-20T15:17:20.081Z,31.33
2023-08-20T15:20:23.572Z,31.33
2023-08-20T15:23:27.127Z,33.00
2023-08-20T15:26:30.312Z,32.00
2023-08-20T15:29:33.980Z,30.00
2023-08-20T15:32:36.947Z,33.67
2023-08-20T15:35:39.869Z,32.00
2023-08-20T15:38:43.318Z,30.33
2023-08-20T15:41:47.708Z,33.67
2023-08-20T15:44:51.011Z,31.67
2023-08-20T15:47:53.912Z,31.00
2023-08-20T15:50:56.886Z,33.33
2023-08-20T15:54:00.762Z,30.33
2023-08-20T15:57:03.922Z,28.00
2023-08-20T16:00:07.144Z,28.33
2023-08-20T16:03:12.614Z,26.33
2023-08-20T16:06:15.513Z,28.00
2023-08-20T16:09:22.216Z,29.67
2023-08-20T16:12:29.547Z,25.67
2023-08-20T16:15:32.847Z,28.33
2023-08-20T16:18:35.524Z,26.00
2023-08-20T16:21:38.677Z,26.00
2023-08-20T16:24:41.945Z,23.50
2023-08-20T16:27:45.320Z,24.00
2023-08-20T16:30:48.418Z,24.33
2023-08-20T16:33:54.384Z,23.00
2023-08-20T16:36:57.968Z,24.67
2023-08-20T16:40:02.047Z,26.75
2023-08-20T16:43:05.564Z,25.00
2023-08-20T16:46:09.849Z,26.67
2023-08-20T16:49:13.403Z,28.00
2023-08-20T16:52:16.911Z,31.00
2023-08-20T16:55:20.547Z,25.33
2023-08-20T16:58:24.613Z,25.33
2023-08-20T17:01:27.830Z,25.00
2023-08-20T17:04:34.396Z,28.00
2023-08-20T17:07:37.656Z,27.00
2023-08-20T17:10:41.941Z,29.67
2023-08-20T17:13:45.476Z,28.67
2023-08-20T17:16:50.340Z,27.00
2023-08-20T17:19:53.556Z,28.00
2023-08-20T17:22:57.096Z,29.00
2023-08-20T17:26:00.439Z,26.67
2023-08-20T17:29:03.862Z,26.00
2023-08-20T17:32:07.671Z,28.33
2023-08-20T17:35:11.320Z,28.67
2023-08-20T17:38:16.131Z,27.00
2023-08-20T17:41:19.797Z,28.67
2023-08-20T17:44:23.358Z,30.67
2023-08-20T17:47:27.045Z,27.67
2023-08-20T17:50:30.156Z,25.67
2023-08-20T17:53:33.310Z,31.00
2023-08-20T17:56:37.074Z,29.67
2023-08-20T17:59:40.664Z,27.33
2023-08-20T18:02:45.342Z,28.67
2023-08-20T18:05:49.409Z,33.00
2023-08-20T18:08:52.261Z,28.00
2023-08-20T18:11:55.785Z,31.33
2023-08-20T18:14:59.131Z,27.67
2023-08-20T18:18:03.607Z,30.67
2023-08-20T18:21:06.970Z,32.33
2023-08-20T18:24:10.219Z,31.33
2023-08-20T18:27:14.149Z,28.67
2023-08-20T18:30:18.179Z,32.00
2023-08-20T18:33:23.031Z,35.67
2023-08-20T18:36:27.273Z,33.00
2023-08-20T18:39:31.075Z,33.67
2023-08-20T18:42:35.563Z,31.33
2023-08-20T18:45:39.244Z,35.33
2023-08-20T18:48:42.782Z,38.33
2023-08-20T18:51:46.225Z,37.33
2023-08-20T18:54:50.006Z,41.67
2023-08-20T18:57:53.854Z,36.33
2023-08-20T19:00:57.839Z,37.67
2023-08-20T19:04:01.206Z,35.67
2023-08-20T19:07:05.792Z,39.33
2023-08-20T19:10:11.887Z,37.67
2023-08-20T19:13:15.306Z,41.67
2023-08-20T19:16:18.776Z,39.67
2023-08-20T19:19:22.726Z,43.67
2023-08-20T19:22:25.781Z,41.33
2023-08-20T19:25:29.953Z,43.67
2023-08-20T19:28:33.713Z,43.00
2023-08-20T19:31:37.538Z,47.50
2023-08-20T19:34:41.023Z,46.25
2023-08-20T19:37:44.987Z,43.00
2023-08-20T19:40:49.129Z,47.50
2023-08-20T19:43:55.831Z,42.00
2023-08-20T19:47:01.351Z,45.67
2023-08-20T19:50:05.669Z,42.50
2023-08-20T19:53:12.628Z,46.75
2023-08-20T19:56:16.030Z,45.75
2023-08-20T19:59:25.294Z,46.50
2023-08-20T20:02:29.163Z,46.25
2023-08-20T20:05:32.246Z,46.50
2023-08-20T20:08:36.474Z,49.25
2023-08-20T20:11:40.514Z,49.25
2023-08-20T20:14:45.506Z,48.75
2023-08-20T20:17:52.017Z,48.00
2023-08-20T20:20:56.726Z,46.00
2023-08-20T20:24:00.332Z,45.75
2023-08-20T20:27:06.508Z,47.00
2023-08-20T20:30:10.352Z,47.00
2023-08-20T20:33:14.286Z,46.00
2023-08-20T20:36:17.384Z,46.75
2023-08-20T20:39:21.555Z,45.50
2023-08-20T20:42:24.989Z,48.00
2023-08-20T20:45:29.282Z,47.25
2023-08-20T20:48:33.120Z,45.50
2023-08-20T20:51:36.679Z,46.00
2023-08-20T20:54:39.788Z,46.25
2023-08-20T20:57:43.261Z,46.50
2023-08-20T21:00:48.391Z,44.00
2023-08-20T21:03:52.428Z,49.75
2023-08-20T21:06:55.608Z,45.00
2023-08-20T21:09:58.476Z,47.50
2023-08-20T21:13:01.490Z,42.50
2023-08-20T21:16:04.813Z,46.25
2023-08-20T21:19:09.097Z,44.25
2023-08-20T21:22:13.272Z,45.00
2023-08-20T21:25:15.714Z,44.50
2023-08-20T21:28:18.788Z,43.50
2023-08-20T21:31:21.472Z,44.00
2023-08-20T21:34:24.208Z,47.25
2023-08-20T21:37:27.074Z,43.00
2023-08-20T21:40:29.868Z,43.25
2023-08-20T21:43:32.432Z,48.50
2023-08-20T21:46:35.275Z,45.25
2023-08-20T21:49:37.748Z,46.25
2023-08-20T21:52:40.697Z,48.00
2023-08-20T21:55:43.331Z,46.25
2023-08-20T21:58:46.149Z,43.00
2023-08-20T22:01:48.843Z,41.50
2023-08-20T22:04:51.740Z,42.50
2023-08-20T22:07:54.292Z,45.25
2023-08-20T22:10:58.151Z,45.25
2023-08-20T22:14:00.691Z,42.75
2023-08-20T22:17:06.957Z,45.25
2023-08-20T22:20:11.639Z,39.25
2023-08-20T22:23:16.743Z,43.50
2023-08-20T22:26:21.324Z,44.00
2023-08-20T22:29:24.227Z,43.25
2023-08-20T22:32:26.864Z,42.25
2023-08-20T22:35:29.711Z,39.75
2023-08-20T22:38:32.159Z,45.00
2023-08-20T22:41:35.038Z,45.00
2023-08-20T22:44:37.630Z,44.00
2023-08-20T22:47:40.425Z,46.50
2023-08-20T22:50:42.896Z,43.25
2023-08-20T22:53:45.645Z,45.25
2023-08-20T22:56:48.066Z,45.50
2023-08-20T22:59:50.910Z,46.25
2023-08-20T23:02:53.452Z,41.00
2023-08-20T23:05:56.244Z,34.75
2023-08-20T23:08:58.678Z,45.00
2023-08-20T23:12:01.600Z,44.75
2023-08-20T23:15:05.625Z,43.50
2023-08-20T23:18:08.456Z,44.75
2023-08-20T23:21:10.928Z,41.75
2023-08-20T23:24:13.767Z,43.00
2023-08-20T23:27:16.172Z,42.75
2023-08-20T23:30:19.629Z,40.50
2023-08-20T23:33:22.276Z,39.25
2023-08-20T23:36:25.059Z,42.75
2023-08-20T23:39:27.581Z,41.25
2023-08-20T23:42:30.399Z,46.25
2023-08-20T23:45:32.943Z,46.50
2023-08-20T23:48:35.720Z,42.25
2023-08-20T23:51:38.696Z,45.00
2023-08-20T23:54:41.567Z,45.50
2023-08-20T23:57:44.021Z,44.75
